createdAt,value
2023-05-19T00:00:26.485Z,58.4
2023-05-19T00:02:26.483Z,58.4
2023-05-19T00:04:26.401Z,59.3
2023-05-19T00:06:26.762Z,58.7
2023-05-19T00:08:26.381Z,59.5
2023-05-19T00:10:26.396Z,59.2
2023-05-19T00:12:26.364Z,59.2
2023-05-19T00:14:26.360Z,59.3
2023-05-19T00:16:27.590Z,59.5
2023-05-19T00:18:26.354Z,60
2023-05-19T00:20:28.860Z,60.5
2023-05-19T00:22:26.358Z,61
2023-05-19T00:24:26.408Z,60.6
2023-05-19T00:26:26.365Z,60.6
2023-05-19T00:28:27.848Z,60.8
2023-05-19T00:30:29.045Z,61.4
2023-05-19T00:32:29.071Z,60.8
2023-05-19T00:34:26.442Z,60.8
2023-05-19T00:36:30.597Z,61.3
2023-05-19T00:38:26.406Z,61.3
2023-05-19T00:40:27.793Z,61.4
2023-05-19T00:42:26.321Z,61.1
2023-05-19T00:44:26.302Z,61.4
2023-05-19T00:46:26.384Z,61.3
2023-05-19T00:48:26.400Z,61.7
2023-05-19T00:50:26.433Z,61.7
2023-05-19T00:52:26.320Z,62
2023-05-19T00:54:26.303Z,61.7
2023-05-19T00:56:26.336Z,62.3
2023-05-19T00:58:28.776Z,62.6
2023-05-19T01:00:26.260Z,62.6
2023-05-19T01:02:26.452Z,62.5
2023-05-19T01:04:26.282Z,62.6
2023-05-19T01:06:26.397Z,62.6
2023-05-19T01:08:26.458Z,63.4
2023-05-19T01:10:26.307Z,63.2
2023-05-19T01:12:26.312Z,63.4
2023-05-19T01:14:26.284Z,63.3
2023-05-19T01:16:26.327Z,63.3
2023-05-19T01:18:26.416Z,64
2023-05-19T01:20:26.363Z,63.7
2023-05-19T01:22:30.594Z,63.8
2023-05-19T01:24:26.278Z,64
2023-05-19T01:26:26.282Z,64
2023-05-19T01:28:48.998Z,64.5
2023-05-19T01:30:28.647Z,64.6
2023-05-19T01:32:26.332Z,64.7
2023-05-19T01:34:26.274Z,64.7
2023-05-19T01:36:26.354Z,64.9
2023-05-19T01:38:26.292Z,65.5
2023-05-19T01:40:27.694Z,65.2
2023-05-19T01:42:26.225Z,65.1
2023-05-19T01:44:26.304Z,65.3
2023-05-19T01:46:26.288Z,65.3
2023-05-19T01:48:26.266Z,65.8
2023-05-19T01:50:26.298Z,65.6
2023-05-19T01:52:26.243Z,65.6
2023-05-19T01:54:26.301Z,65.7
2023-05-19T01:56:26.318Z,65.8
2023-05-19T01:58:26.356Z,66.3
2023-05-19T02:00:26.508Z,66
2023-05-19T02:02:26.240Z,66
2023-05-19T02:04:27.678Z,66
2023-05-19T02:06:26.259Z,66.2
2023-05-19T02:08:26.263Z,66.8
2023-05-19T02:10:26.217Z,66.5
2023-05-19T02:12:26.225Z,66.5
2023-05-19T02:14:26.276Z,66.5
2023-05-19T02:16:26.249Z,66.8
2023-05-19T02:18:26.222Z,67.2
2023-05-19T02:20:26.225Z,67
2023-05-19T02:22:26.182Z,67
2023-05-19T02:24:27.548Z,67.1
2023-05-19T02:26:26.242Z,67.1
2023-05-19T02:28:26.221Z,67.6
2023-05-19T02:30:30.609Z,67.5
2023-05-19T02:32:26.221Z,67.4
2023-05-19T02:34:26.194Z,67.3
2023-05-19T02:36:26.188Z,67.4
2023-05-19T02:38:26.445Z,67.9
2023-05-19T02:40:26.170Z,67.7
2023-05-19T02:42:26.179Z,67.6
2023-05-19T02:44:26.189Z,67.6
2023-05-19T02:46:26.234Z,67.6
2023-05-19T02:48:26.182Z,68.2
2023-05-19T02:50:26.171Z,68
2023-05-19T02:52:30.473Z,68
2023-05-19T02:54:26.184Z,68.1
2023-05-19T02:56:26.151Z,68.1
2023-05-19T02:58:26.180Z,68.6
2023-05-19T03:00:26.206Z,68.3
2023-05-19T03:02:26.281Z,68.4
2023-05-19T03:04:26.134Z,68.5
2023-05-19T03:06:26.152Z,68.6
2023-05-19T03:08:26.175Z,69.1
2023-05-19T03:10:26.146Z,68.8
2023-05-19T03:12:26.148Z,68.8
2023-05-19T03:14:26.176Z,68.8
2023-05-19T03:16:26.214Z,68.9
2023-05-19T03:18:26.190Z,69.4
2023-05-19T03:20:26.149Z,69.1
2023-05-19T03:22:26.137Z,69.1
2023-05-19T03:24:26.134Z,69.1
2023-05-19T03:26:26.129Z,69.2
2023-05-19T03:28:26.125Z,69.6
2023-05-19T03:30:27.578Z,69.4
2023-05-19T03:32:26.197Z,69.3
2023-05-19T03:34:26.162Z,69.3
2023-05-19T03:36:26.123Z,69.4
2023-05-19T03:38:26.182Z,69.8
2023-05-19T03:40:26.188Z,69.6
2023-05-19T03:42:26.150Z,69.6
2023-05-19T03:44:26.149Z,69.5
2023-05-19T03:46:26.223Z,69.6
2023-05-19T03:48:26.119Z,70
2023-05-19T03:50:26.160Z,69.7
2023-05-19T03:52:26.132Z,69.7
2023-05-19T03:54:26.130Z,69.7
2023-05-19T03:56:26.110Z,69.8
2023-05-19T03:58:26.132Z,70.1
2023-05-19T04:00:26.151Z,69.8
2023-05-19T04:02:26.181Z,69.8
2023-05-19T04:04:26.191Z,70
2023-05-19T04:06:26.129Z,69.9
2023-05-19T04:08:26.098Z,70.2
2023-05-19T04:10:26.091Z,70.1
2023-05-19T04:12:26.254Z,70.1
2023-05-19T04:14:26.153Z,70
2023-05-19T04:16:26.094Z,70.2
2023-05-19T04:18:28.282Z,70.4
2023-05-19T04:20:26.068Z,70.3
2023-05-19T04:22:26.157Z,70.3
2023-05-19T04:24:27.180Z,70.4
2023-05-19T04:26:26.087Z,70.2
2023-05-19T04:28:26.058Z,70.6
2023-05-19T04:30:26.124Z,70.3
2023-05-19T04:32:26.135Z,70.6
2023-05-19T04:34:26.055Z,70.4
2023-05-19T04:36:26.113Z,70.4
2023-05-19T04:38:27.349Z,70.7
2023-05-19T04:40:26.040Z,70.7
2023-05-19T04:42:26.567Z,70.7
2023-05-19T04:44:26.183Z,70.8
2023-05-19T04:46:26.130Z,70.8
2023-05-19T04:48:26.021Z,71
2023-05-19T04:50:26.055Z,71
2023-05-19T04:52:26.042Z,70.9
2023-05-19T04:54:26.064Z,71
2023-05-19T04:56:26.032Z,70.8
2023-05-19T04:58:26.046Z,71
2023-05-19T05:00:26.020Z,71.3
2023-05-19T05:02:26.035Z,70.9
2023-05-19T05:04:26.035Z,71
2023-05-19T05:06:26.085Z,70.9
2023-05-19T05:08:26.065Z,71.1
2023-05-19T05:10:26.168Z,71
2023-05-19T05:12:27.102Z,71
2023-05-19T05:14:26.027Z,71
2023-05-19T05:16:26.051Z,70.9
2023-05-19T05:18:26.010Z,71.1
2023-05-19T05:20:25.988Z,71.2
2023-05-19T05:22:26.017Z,71.3
2023-05-19T05:24:26.023Z,71.1
2023-05-19T05:26:26.025Z,71.1
2023-05-19T05:28:28.664Z,71.4
2023-05-19T05:30:27.872Z,71.4
2023-05-19T05:32:26.426Z,71.5
2023-05-19T05:34:28.892Z,71.3
2023-05-19T05:36:26.233Z,71.5
2023-05-19T05:38:26.376Z,71.4
2023-05-19T05:40:26.023Z,71.6
2023-05-19T05:42:28.256Z,71.9
2023-05-19T05:44:27.753Z,71.7
2023-05-19T05:46:26.419Z,71.6
2023-05-19T05:48:26.197Z,71.7
2023-05-19T05:50:27.468Z,71.9
2023-05-19T05:52:26.292Z,71.9
2023-05-19T05:54:25.988Z,71.9
2023-05-19T05:56:25.999Z,71.8
2023-05-19T05:58:26.347Z,71.9
2023-05-19T06:00:26.303Z,71.9
2023-05-19T06:02:26.046Z,72
2023-05-19T06:04:26.207Z,71.9
2023-05-19T06:06:26.032Z,71.9
2023-05-19T06:08:26.171Z,72
2023-05-19T06:10:26.299Z,72
2023-05-19T06:12:26.161Z,72.1
2023-05-19T06:14:26.251Z,72.2
2023-05-19T06:16:27.491Z,72.4
2023-05-19T06:18:26.337Z,72.2
2023-05-19T06:20:43.899Z,72.3
2023-05-19T06:22:26.162Z,72.5
2023-05-19T06:24:26.262Z,72.4
2023-05-19T06:26:26.269Z,72.4
2023-05-19T06:28:25.951Z,72.5
2023-05-19T06:30:25.979Z,72.5
2023-05-19T06:32:28.734Z,72.8
2023-05-19T06:34:26.279Z,72.6
2023-05-19T06:36:26.178Z,72.6
2023-05-19T06:38:27.680Z,72.6
2023-05-19T06:40:26.154Z,72.7
2023-05-19T06:42:26.074Z,72.8
2023-05-19T06:44:26.332Z,72.8
2023-05-19T06:46:26.285Z,73.5
2023-05-19T06:48:28.590Z,73
2023-05-19T06:50:26.218Z,73.1
2023-05-19T06:52:26.250Z,73.3
2023-05-19T06:54:25.964Z,73.2
2023-05-19T06:56:26.255Z,73.4
2023-05-19T06:58:25.966Z,73.5
2023-05-19T07:00:26.399Z,74
2023-05-19T07:02:37.309Z,73.4
2023-05-19T07:04:26.010Z,73.3
2023-05-19T07:06:26.006Z,73.5
2023-05-19T07:08:26.157Z,73.2
2023-05-19T07:10:25.917Z,73.7
2023-05-19T07:12:26.118Z,73.4
2023-05-19T07:14:26.297Z,73.4
2023-05-19T07:16:26.168Z,73.8
2023-05-19T07:18:26.163Z,73.6
2023-05-19T07:20:26.244Z,73.5
2023-05-19T07:22:25.908Z,73.7
2023-05-19T07:24:27.405Z,73.5
2023-05-19T07:26:26.111Z,73.4
2023-05-19T07:28:25.893Z,73.7
2023-05-19T07:30:25.910Z,73.5
2023-05-19T07:32:28.439Z,73.8
2023-05-19T07:34:25.939Z,73.6
2023-05-19T07:36:25.931Z,73.7
2023-05-19T07:38:26.018Z,73.5
2023-05-19T07:40:26.075Z,73.4
2023-05-19T07:42:27.538Z,73.4
2023-05-19T07:44:26.269Z,73.8
2023-05-19T07:46:36.564Z,73.6
2023-05-19T07:48:26.093Z,73.4
2023-05-19T07:50:25.968Z,73.3
2023-05-19T07:52:26.105Z,73.3
2023-05-19T07:54:26.140Z,73.5
2023-05-19T07:56:27.297Z,73.5
2023-05-19T07:58:26.244Z,73.3
2023-05-19T08:00:27.300Z,73.3
2023-05-19T08:02:26.190Z,73.3
2023-05-19T08:04:25.837Z,73.4
2023-05-19T08:06:26.147Z,73.3
2023-05-19T08:08:25.838Z,73.5
2023-05-19T08:10:25.964Z,73.2
2023-05-19T08:12:26.150Z,73.4
2023-05-19T08:14:25.893Z,73.2
2023-05-19T08:16:26.086Z,73.2
2023-05-19T08:18:25.937Z,73.6
2023-05-19T08:20:25.917Z,73.2
2023-05-19T08:22:26.088Z,73.3
2023-05-19T08:24:26.100Z,73.2
2023-05-19T08:26:26.061Z,73.3
2023-05-19T08:28:25.903Z,73.2
2023-05-19T08:30:26.211Z,73.2
2023-05-19T08:32:26.093Z,73.2
2023-05-19T08:34:25.907Z,73.2
2023-05-19T08:36:25.895Z,73.3
2023-05-19T08:38:26.209Z,73.3
2023-05-19T08:40:26.128Z,73.2
2023-05-19T08:42:26.076Z,73.4
2023-05-19T08:44:25.996Z,73.3
2023-05-19T08:46:27.053Z,73.2
2023-05-19T08:48:26.054Z,73.4
2023-05-19T08:50:26.152Z,73.2
2023-05-19T08:52:26.042Z,73.5
2023-05-19T08:54:25.868Z,73.4
2023-05-19T08:56:25.957Z,73.6
2023-05-19T08:58:26.838Z,73.6
2023-05-19T09:00:25.861Z,73.7
2023-05-19T09:02:27.467Z,73.5
2023-05-19T09:04:30.504Z,74.2
2023-05-19T09:06:25.893Z,74.1
2023-05-19T09:08:26.018Z,73.8
2023-05-19T09:10:27.239Z,74.3
2023-05-19T09:12:25.813Z,73.8
2023-05-19T09:14:25.993Z,73.9
2023-05-19T09:16:27.840Z,73.8
2023-05-19T09:18:25.801Z,74.9
2023-05-19T09:20:26.022Z,74
2023-05-19T09:22:26.033Z,73.9
2023-05-19T09:24:26.228Z,73.9
2023-05-19T09:26:27.013Z,73.9
2023-05-19T09:28:26.095Z,74
2023-05-19T09:30:25.935Z,73.9
2023-05-19T09:32:25.988Z,74
2023-05-19T09:34:26.007Z,74.2
2023-05-19T09:36:25.790Z,74.2
2023-05-19T09:38:26.092Z,74
2023-05-19T09:40:30.235Z,74.1
2023-05-19T09:42:25.964Z,74.5
2023-05-19T09:44:25.968Z,74.4
2023-05-19T09:46:27.198Z,74.4
2023-05-19T09:48:25.973Z,75.3
2023-05-19T09:50:25.948Z,74.4
2023-05-19T09:52:25.849Z,74.6
2023-05-19T09:54:25.856Z,75
2023-05-19T09:56:25.686Z,74.7
2023-05-19T09:58:25.661Z,74.9
2023-05-19T10:00:26.848Z,75
2023-05-19T10:02:29.741Z,74.6
2023-05-19T10:04:30.046Z,75.1
2023-05-19T10:06:25.674Z,74.7
2023-05-19T10:08:29.821Z,74.5
2023-05-19T10:10:25.667Z,74.2
2023-05-19T10:12:28.549Z,74.2
2023-05-19T10:14:25.722Z,74.5
2023-05-19T10:16:25.743Z,74.3
2023-05-19T10:18:25.849Z,74
2023-05-19T10:20:25.707Z,73.8
2023-05-19T10:22:25.727Z,73.9
2023-05-19T10:24:25.658Z,73.9
2023-05-19T10:26:25.749Z,74.2
2023-05-19T10:28:25.789Z,73.7
2023-05-19T10:30:25.738Z,73.4
2023-05-19T10:32:25.912Z,73.5
2023-05-19T10:34:25.838Z,73.4
2023-05-19T10:36:27.303Z,73.4
2023-05-19T10:38:48.812Z,73.2
2023-05-19T10:40:26.768Z,73
2023-05-19T10:42:25.727Z,73
2023-05-19T10:44:25.704Z,72.8
2023-05-19T10:46:25.838Z,72.7
2023-05-19T10:48:25.670Z,72.7
2023-05-19T10:50:25.706Z,71.8
2023-05-19T10:52:25.810Z,72.1
2023-05-19T10:54:25.773Z,72.2
2023-05-19T10:56:25.636Z,72.2
2023-05-19T10:58:25.634Z,72.2
2023-05-19T11:00:25.660Z,72
2023-05-19T11:02:28.563Z,72
2023-05-19T11:04:27.066Z,71.8
2023-05-19T11:06:25.613Z,71.8
2023-05-19T11:08:25.705Z,71.5
2023-05-19T11:10:25.704Z,71.2
2023-05-19T11:12:25.689Z,71.2
2023-05-19T11:14:25.710Z,71.2
2023-05-19T11:16:25.654Z,71.3
2023-05-19T11:18:26.354Z,71.3
2023-05-19T11:20:25.641Z,70.9
2023-05-19T11:22:25.713Z,70.9
2023-05-19T11:24:25.691Z,70.9
2023-05-19T11:26:25.739Z,70.6
2023-05-19T11:28:25.723Z,70.8
2023-05-19T11:30:25.680Z,70.5
2023-05-19T11:32:26.721Z,70.5
2023-05-19T11:34:25.668Z,70.5
2023-05-19T11:36:26.667Z,70
2023-05-19T11:38:25.649Z,69.7
2023-05-19T11:40:25.757Z,69.7
2023-05-19T11:42:25.632Z,69.7
2023-05-19T11:44:25.695Z,69.1
2023-05-19T11:46:25.785Z,69.2
2023-05-19T11:48:25.888Z,68.7
2023-05-19T11:50:25.717Z,68.9
2023-05-19T11:52:25.591Z,69.1
2023-05-19T11:54:25.677Z,68.9
2023-05-19T11:56:25.622Z,68.7
2023-05-19T11:58:26.788Z,68.8
2023-05-19T12:00:26.481Z,68
2023-05-19T12:02:25.724Z,68.5
2023-05-19T12:04:25.643Z,68.2
2023-05-19T12:06:25.716Z,68.2
2023-05-19T12:08:25.578Z,68.1
2023-05-19T12:10:25.667Z,67.9
2023-05-19T12:11:02.884Z,67.9
2023-05-19T12:12:25.634Z,67.9
2023-05-19T12:14:26.736Z,67.9
2023-05-19T12:16:25.738Z,68
2023-05-19T12:18:27.011Z,68.1
2023-05-19T12:20:25.575Z,67.1
2023-05-19T12:22:29.703Z,67.1
2023-05-19T12:24:25.799Z,67.3
2023-05-19T12:26:25.517Z,66.7
2023-05-19T12:28:25.525Z,66.6
2023-05-19T12:30:25.521Z,66.5
2023-05-19T12:32:25.746Z,66.9
2023-05-19T12:34:25.592Z,66.9
2023-05-19T12:36:25.585Z,66.8
2023-05-19T12:38:25.530Z,66.2
2023-05-19T12:40:25.550Z,65.9
2023-05-19T12:42:25.696Z,66.1
2023-05-19T12:44:25.484Z,65.3
2023-05-19T12:46:25.602Z,66
2023-05-19T12:48:25.568Z,65.4
2023-05-19T12:50:26.838Z,65
2023-05-19T12:52:25.478Z,65
2023-05-19T12:54:25.511Z,64.5
2023-05-19T12:56:25.508Z,65.1
2023-05-19T12:58:25.492Z,65.1
2023-05-19T13:00:25.720Z,65.1
2023-05-19T13:02:25.668Z,65.1
2023-05-19T13:04:28.095Z,65
2023-05-19T13:06:25.538Z,64.9
2023-05-19T13:08:25.535Z,64.7
2023-05-19T13:10:26.578Z,64.6
2023-05-19T13:12:25.566Z,64.6
2023-05-19T13:14:25.528Z,63.2
2023-05-19T13:16:25.582Z,63.9
2023-05-19T13:18:25.500Z,63.2
2023-05-19T13:20:27.727Z,62.7
2023-05-19T13:22:25.723Z,63
2023-05-19T13:24:25.538Z,62.5
2023-05-19T13:26:25.504Z,62.7
2023-05-19T13:28:25.581Z,62
2023-05-19T13:30:26.647Z,61.8
2023-05-19T13:32:26.703Z,61.7
2023-05-19T13:34:25.521Z,60.7
2023-05-19T13:36:25.530Z,60.4
2023-05-19T13:38:25.657Z,59.6
2023-05-19T13:40:25.480Z,60.1
2023-05-19T13:42:25.559Z,60.3
2023-05-19T13:44:26.877Z,61
2023-05-19T13:46:32.995Z,60.7
2023-05-19T13:48:25.472Z,60.2
2023-05-19T13:50:25.628Z,59.2
2023-05-19T13:52:26.941Z,58.8
2023-05-19T13:54:25.488Z,59.8
2023-05-19T13:56:26.617Z,60.3
2023-05-19T13:58:25.479Z,60.9
2023-05-19T14:00:25.436Z,60.6
2023-05-19T14:02:25.486Z,60.7
2023-05-19T14:04:25.481Z,59.8
2023-05-19T14:06:25.569Z,59.4
2023-05-19T14:08:25.531Z,59.1
2023-05-19T14:10:26.956Z,59.5
2023-05-19T14:12:34.719Z,59.7
2023-05-19T14:14:33.458Z,59.5
2023-05-19T14:16:25.490Z,59.2
2023-05-19T14:18:28.404Z,58.5
2023-05-19T14:20:29.738Z,58.2
2023-05-19T14:22:26.533Z,58.7
2023-05-19T14:24:25.432Z,58.2
2023-05-19T14:26:26.815Z,57.8
2023-05-19T14:28:25.390Z,58.4
2023-05-19T14:30:25.597Z,56.4
2023-05-19T14:32:28.746Z,57.6
2023-05-19T14:34:25.384Z,57.6
2023-05-19T14:36:26.536Z,57.1
2023-05-19T14:38:27.088Z,56.8
2023-05-19T14:40:25.400Z,56.8
2023-05-19T14:42:25.438Z,57.1
2023-05-19T14:44:26.664Z,56.9
2023-05-19T14:46:25.495Z,57.1
2023-05-19T14:48:25.518Z,56.8
2023-05-19T14:50:26.936Z,56.3
2023-05-19T14:52:25.424Z,55.8
2023-05-19T14:54:26.807Z,56.3
2023-05-19T14:56:25.405Z,55
2023-05-19T14:58:29.144Z,55.5
2023-05-19T15:00:27.982Z,54.9
2023-05-19T15:02:30.153Z,55.4
2023-05-19T15:04:25.420Z,55.4
2023-05-19T15:06:25.471Z,55
2023-05-19T15:08:25.380Z,54.1
2023-05-19T15:10:25.351Z,54.4
2023-05-19T15:12:25.390Z,54.8
2023-05-19T15:14:26.196Z,54.7
2023-05-19T15:16:25.471Z,55
2023-05-19T15:18:25.343Z,53.4
2023-05-19T15:20:26.474Z,53.7
2023-05-19T15:22:26.677Z,54.4
2023-05-19T15:24:25.416Z,54.3
2023-05-19T15:26:26.393Z,54.4
2023-05-19T15:28:29.521Z,53.6
2023-05-19T15:30:25.397Z,52.8
2023-05-19T15:32:25.738Z,52.7
2023-05-19T15:34:25.332Z,52.2
2023-05-19T15:36:27.834Z,52.8
2023-05-19T15:38:28.458Z,52.4
2023-05-19T15:40:25.386Z,51.8
2023-05-19T15:42:25.330Z,51.1
2023-05-19T15:44:25.806Z,51.7
2023-05-19T15:46:25.462Z,52.1
2023-05-19T15:48:25.290Z,51.6
2023-05-19T15:50:25.307Z,50.7
2023-05-19T15:52:25.304Z,51.4
2023-05-19T15:54:26.813Z,51.6
2023-05-19T15:56:26.613Z,52
2023-05-19T15:58:25.355Z,52.4
2023-05-19T16:00:25.329Z,51.9
2023-05-19T16:02:25.399Z,51.4
2023-05-19T16:04:25.409Z,51.8
2023-05-19T16:06:25.441Z,51.6
2023-05-19T16:08:25.383Z,51.9
2023-05-19T16:10:25.394Z,51.4
2023-05-19T16:12:25.414Z,51.8
2023-05-19T16:14:26.073Z,52.6
2023-05-19T16:16:25.538Z,52.1
2023-05-19T16:18:25.392Z,51
2023-05-19T16:20:25.391Z,51.8
2023-05-19T16:22:25.386Z,51.6
2023-05-19T16:24:25.314Z,51.3
2023-05-19T16:26:25.280Z,51.8
2023-05-19T16:28:25.430Z,51.2
2023-05-19T16:30:25.279Z,52
2023-05-19T16:32:25.386Z,51.9
2023-05-19T16:34:25.359Z,52.4
2023-05-19T16:36:25.371Z,52.3
2023-05-19T16:38:25.391Z,52.5
2023-05-19T16:40:25.406Z,52.1
2023-05-19T16:42:26.560Z,52
2023-05-19T16:44:29.804Z,52.2
2023-05-19T16:46:25.363Z,52.4
2023-05-19T16:48:25.278Z,52.1
2023-05-19T16:50:25.278Z,49.2
2023-05-19T16:52:26.595Z,50
2023-05-19T16:54:25.322Z,50.6
2023-05-19T16:56:25.230Z,50.8
2023-05-19T16:58:25.229Z,50.7
2023-05-19T17:00:25.390Z,50.5
2023-05-19T17:02:25.407Z,51.5
2023-05-19T17:04:28.227Z,51.1
2023-05-19T17:06:25.382Z,52.3
2023-05-19T17:08:25.320Z,52.5
2023-05-19T17:10:25.443Z,52.3
2023-05-19T17:12:25.255Z,52.4
2023-05-19T17:14:26.693Z,52.2
2023-05-19T17:16:25.388Z,52.4
2023-05-19T17:18:47.650Z,52
2023-05-19T17:20:26.406Z,50.8
2023-05-19T17:22:27.825Z,51.5
2023-05-19T17:24:25.212Z,52.2
2023-05-19T17:26:25.270Z,52.6
2023-05-19T17:28:25.181Z,52.7
2023-05-19T17:30:25.247Z,53
2023-05-19T17:32:25.319Z,52.1
2023-05-19T17:34:25.184Z,53
2023-05-19T17:36:25.209Z,53.3
2023-05-19T17:38:25.233Z,53.5
2023-05-19T17:40:25.273Z,52.9
2023-05-19T17:42:25.396Z,53.9
2023-05-19T17:44:25.307Z,54.2
2023-05-19T17:46:25.282Z,54.1
2023-05-19T17:48:25.263Z,54.2
2023-05-19T17:50:25.310Z,54.2
2023-05-19T17:52:25.246Z,54.1
2023-05-19T17:54:25.186Z,54.6
2023-05-19T17:56:25.209Z,54.5
2023-05-19T17:58:25.220Z,54
2023-05-19T18:00:25.364Z,53.5
2023-05-19T18:02:26.492Z,52.6
2023-05-19T18:04:25.207Z,52
2023-05-19T18:06:25.327Z,52.6
2023-05-19T18:08:25.319Z,53.3
2023-05-19T18:10:25.290Z,52.2
2023-05-19T18:12:25.341Z,52.4
2023-05-19T18:14:26.542Z,53
2023-05-19T18:16:25.260Z,52.3
2023-05-19T18:18:25.204Z,52.6
2023-05-19T18:20:25.407Z,52.3
2023-05-19T18:22:25.281Z,52.2
2023-05-19T18:24:25.380Z,52.4
2023-05-19T18:26:25.255Z,53.3
2023-05-19T18:28:32.876Z,53.9
2023-05-19T18:30:29.324Z,54.5
2023-05-19T18:32:25.271Z,54.4
2023-05-19T18:34:25.274Z,54.5
2023-05-19T18:36:25.229Z,54.3
2023-05-19T18:38:25.306Z,53.7
2023-05-19T18:40:26.562Z,53.5
2023-05-19T18:42:26.664Z,53.1
2023-05-19T18:44:25.173Z,53.5
2023-05-19T18:46:26.450Z,54.3
2023-05-19T18:48:25.178Z,54.7
2023-05-19T18:50:25.235Z,55.1
2023-05-19T18:52:25.139Z,55.3
2023-05-19T18:54:25.199Z,55.5
2023-05-19T18:56:25.285Z,55.7
2023-05-19T18:58:25.122Z,55.6
2023-05-19T19:00:25.603Z,56
2023-05-19T19:02:25.209Z,55.6
2023-05-19T19:04:25.154Z,56.3
2023-05-19T19:06:25.100Z,57.1
2023-05-19T19:08:25.113Z,57.3
2023-05-19T19:10:25.363Z,58.4
2023-05-19T19:12:25.326Z,57.8
2023-05-19T19:14:25.277Z,58.3
2023-05-19T19:16:25.219Z,58.2
2023-05-19T19:18:25.170Z,58.1
2023-05-19T19:20:25.173Z,58
2023-05-19T19:22:25.270Z,57.9
2023-05-19T19:24:26.610Z,57.9
2023-05-19T19:26:26.272Z,57.8
2023-05-19T19:28:26.603Z,57.8
2023-05-19T19:30:25.112Z,57.1
2023-05-19T19:32:26.765Z,57.9
2023-05-19T19:34:25.161Z,57.1
2023-05-19T19:36:25.166Z,56.9
2023-05-19T19:38:25.198Z,55.8
2023-05-19T19:40:25.148Z,55.8
2023-05-19T19:42:25.200Z,55.8
2023-05-19T19:44:25.088Z,56.3
2023-05-19T19:46:25.128Z,56.4
2023-05-19T19:48:25.062Z,56.7
2023-05-19T19:50:25.098Z,56.4
2023-05-19T19:52:25.141Z,56.2
2023-05-19T19:54:25.065Z,56.3
2023-05-19T19:56:25.151Z,56.3
2023-05-19T19:58:25.116Z,56.2
2023-05-19T20:00:26.544Z,56.7
2023-05-19T20:02:25.409Z,56.6
2023-05-19T20:04:26.480Z,56.8
2023-05-19T20:06:25.090Z,57
2023-05-19T20:08:25.066Z,57
2023-05-19T20:10:25.353Z,57.2
2023-05-19T20:12:25.031Z,57.2
2023-05-19T20:14:25.094Z,57.5
2023-05-19T20:16:25.155Z,57.2
2023-05-19T20:18:29.116Z,57.3
2023-05-19T20:20:25.027Z,57.5
2023-05-19T20:22:25.148Z,57.2
2023-05-19T20:24:25.166Z,56.8
2023-05-19T20:26:25.070Z,56.9
2023-05-19T20:28:25.067Z,57.2
2023-05-19T20:30:25.051Z,57.4
2023-05-19T20:32:25.056Z,56.7
2023-05-19T20:34:25.176Z,56.7
2023-05-19T20:36:25.058Z,57
2023-05-19T20:38:25.079Z,57.3
2023-05-19T20:40:25.030Z,57.1
2023-05-19T20:42:25.016Z,57.3
2023-05-19T20:44:25.099Z,57.5
2023-05-19T20:46:25.253Z,57.2
2023-05-19T20:48:25.041Z,57.4
2023-05-19T20:50:25.249Z,57.2
2023-05-19T20:52:25.028Z,57.4
2023-05-19T20:54:25.052Z,57.9
2023-05-19T20:56:25.082Z,58
2023-05-19T20:58:25.096Z,58
2023-05-19T21:00:30.463Z,58.3
2023-05-19T21:02:25.183Z,58.2
2023-05-19T21:04:26.452Z,58.4
2023-05-19T21:06:25.102Z,58.6
2023-05-19T21:08:25.156Z,58.7
2023-05-19T21:10:25.098Z,59.2
2023-05-19T21:12:25.147Z,58.7
2023-05-19T21:14:25.114Z,59.3
2023-05-19T21:16:25.193Z,59.7
2023-05-19T21:18:25.078Z,59.6
2023-05-19T21:20:25.080Z,59.9
2023-05-19T21:22:25.214Z,60
2023-05-19T21:24:25.040Z,59.9
2023-05-19T21:26:25.136Z,60.2
2023-05-19T21:28:25.090Z,60.2
2023-05-19T21:30:26.219Z,60.4
2023-05-19T21:32:25.073Z,60.2
2023-05-19T21:34:25.134Z,60.4
2023-05-19T21:36:25.046Z,60.3
2023-05-19T21:38:29.149Z,60.5
2023-05-19T21:40:25.041Z,61.2
2023-05-19T21:42:24.961Z,60.4
2023-05-19T21:44:24.996Z,60.2
2023-05-19T21:46:24.955Z,60.5
2023-05-19T21:48:25.022Z,60.6
2023-05-19T21:50:24.976Z,60.6
2023-05-19T21:52:25.041Z,60.3
2023-05-19T21:54:26.252Z,60.7
2023-05-19T21:56:25.048Z,60.9
2023-05-19T21:58:24.989Z,61.2
2023-05-19T22:00:25.190Z,61.1
2023-05-19T22:02:26.185Z,61.4
2023-05-19T22:04:35.509Z,61.1
2023-05-19T22:06:24.991Z,60.9
2023-05-19T22:08:25.049Z,61
2023-05-19T22:10:25.037Z,61.1
2023-05-19T22:12:27.644Z,61.5
2023-05-19T22:14:25.246Z,61.3
2023-05-19T22:16:26.233Z,61.4
2023-05-19T22:18:24.981Z,61.1
2023-05-19T22:20:25.042Z,61
2023-05-19T22:22:26.143Z,60.2
2023-05-19T22:24:25.001Z,57.7
2023-05-19T22:26:25.011Z,54.5
2023-05-19T22:28:32.603Z,55.7
2023-05-19T22:30:25.115Z,56.5
2023-05-19T22:32:26.188Z,58
2023-05-19T22:34:25.018Z,59
2023-05-19T22:36:24.877Z,59.6
2023-05-19T22:38:24.892Z,59
2023-05-19T22:40:24.872Z,59.7
2023-05-19T22:42:24.877Z,59.9
2023-05-19T22:44:24.852Z,60.4
2023-05-19T22:46:24.891Z,60.7
2023-05-19T22:48:25.019Z,60.7
2023-05-19T22:50:24.950Z,60.8
2023-05-19T22:52:25.132Z,61
2023-05-19T22:54:29.313Z,61.4
2023-05-19T22:56:25.957Z,61.7
2023-05-19T22:58:24.956Z,62.1
2023-05-19T23:00:25.101Z,61.8
2023-05-19T23:02:24.911Z,61.8
2023-05-19T23:04:25.091Z,62.1
2023-05-19T23:06:24.882Z,62.2
2023-05-19T23:08:24.928Z,62.6
2023-05-19T23:10:24.958Z,63
2023-05-19T23:12:24.907Z,62.9
2023-05-19T23:14:24.875Z,63.1
2023-05-19T23:16:25.024Z,63.6
2023-05-19T23:18:25.039Z,63.8
2023-05-19T23:20:24.996Z,64.1
2023-05-19T23:22:24.918Z,64.4
2023-05-19T23:24:24.825Z,64.6
2023-05-19T23:26:24.901Z,64.9
2023-05-19T23:28:24.874Z,65.3
2023-05-19T23:30:42.535Z,65.7
2023-05-19T23:32:27.432Z,66.1
2023-05-19T23:34:24.939Z,65.9
2023-05-19T23:36:24.919Z,65.9
2023-05-19T23:38:24.855Z,66.6
2023-05-19T23:40:25.973Z,66.9
2023-05-19T23:42:24.861Z,66.6
2023-05-19T23:44:24.844Z,66.8
2023-05-19T23:46:24.872Z,67
2023-05-19T23:48:24.825Z,67.3
2023-05-19T23:50:29.172Z,67.8
2023-05-19T23:52:24.876Z,67.8
2023-05-19T23:54:24.831Z,67.7
2023-05-19T23:56:24.802Z,67.8
2023-05-19T23:58:24.834Z,68
